createdAt,value
2023-01-09T00:00:33.901Z,2.62
2023-01-09T00:05:57.545Z,2.63
2023-01-09T00:11:01.447Z,2.63
2023-01-09T00:16:06.465Z,2.60
2023-01-09T00:21:11.593Z,2.56
2023-01-09T00:26:19.586Z,2.51
2023-01-09T00:31:25.538Z,2.44
2023-01-09T00:36:32.161Z,2.38
2023-01-09T00:41:44.833Z,2.33
2023-01-09T00:46:56.525Z,2.27
2023-01-09T00:52:00.888Z,2.21
2023-01-09T00:57:04.704Z,2.16
2023-01-09T01:02:09.270Z,2.10
2023-01-09T01:07:31.834Z,2.07
2023-01-09T01:12:35.409Z,2.04
2023-01-09T01:17:40.939Z,2.03
2023-01-09T01:22:48.221Z,2.00
2023-01-09T01:27:52.043Z,1.96
2023-01-09T01:32:56.764Z,1.94
2023-01-09T01:38:01.434Z,1.90
2023-01-09T01:43:05.134Z,1.86
2023-01-09T01:48:16.199Z,1.87
2023-01-09T01:53:37.505Z,1.92
2023-01-09T01:58:48.622Z,1.98
2023-01-09T02:03:55.712Z,2.03
2023-01-09T02:09:02.496Z,2.07
2023-01-09T02:14:06.697Z,2.09
2023-01-09T02:19:24.975Z,2.09
2023-01-09T02:24:56.975Z,2.05
2023-01-09T02:30:29.998Z,2.00
2023-01-09T02:35:41.361Z,1.96
2023-01-09T02:40:54.252Z,1.93
2023-01-09T02:45:58.691Z,1.90
2023-01-09T02:51:25.690Z,1.91
2023-01-09T02:56:52.822Z,1.89
2023-01-09T03:02:47.213Z,1.86
2023-01-09T03:07:58.651Z,1.83
2023-01-09T03:13:04.238Z,1.82
2023-01-09T03:18:09.580Z,1.83
2023-01-09T03:23:16.243Z,1.84
2023-01-09T03:28:27.467Z,1.82
2023-01-09T03:33:31.298Z,1.81
2023-01-09T03:38:35.664Z,1.77
2023-01-09T03:43:39.539Z,1.72
2023-01-09T03:48:46.270Z,1.70
2023-01-09T03:53:50.077Z,1.68
2023-01-09T03:58:54.054Z,1.68
2023-01-09T04:04:00.227Z,1.70
2023-01-09T04:09:03.971Z,1.72
2023-01-09T04:14:08.197Z,1.75
2023-01-09T04:19:12.048Z,1.79
2023-01-09T04:24:15.685Z,1.83
2023-01-09T04:29:20.290Z,1.87
2023-01-09T04:34:25.992Z,1.91
2023-01-09T04:39:29.802Z,1.91
2023-01-09T04:44:33.471Z,1.99
2023-01-09T04:49:37.758Z,2.07
2023-01-09T04:54:41.418Z,2.15
2023-01-09T04:59:45.147Z,2.20
2023-01-09T05:04:48.816Z,2.25
2023-01-09T05:09:52.625Z,2.30
2023-01-09T05:14:58.293Z,2.32
2023-01-09T05:20:02.057Z,2.31
2023-01-09T05:25:07.649Z,2.32
2023-01-09T05:30:13.949Z,2.31
2023-01-09T05:35:17.971Z,2.29
2023-01-09T05:40:24.823Z,2.28
2023-01-09T05:45:32.640Z,2.28
2023-01-09T05:50:37.892Z,2.26
2023-01-09T05:55:42.070Z,2.23
2023-01-09T06:00:45.989Z,2.19
2023-01-09T06:05:49.894Z,2.16
2023-01-09T06:10:53.652Z,2.17
2023-01-09T06:16:00.289Z,2.17
2023-01-09T06:21:05.009Z,2.20
2023-01-09T06:26:09.323Z,2.25
2023-01-09T06:31:13.911Z,2.28
2023-01-09T06:36:17.858Z,2.30
2023-01-09T06:41:21.725Z,2.33
2023-01-09T06:46:25.573Z,2.35
2023-01-09T06:51:29.572Z,2.39
2023-01-09T06:56:34.523Z,2.44
2023-01-09T07:01:40.223Z,2.50
2023-01-09T07:06:44.549Z,2.56
2023-01-09T07:11:49.066Z,2.59
2023-01-09T07:16:52.845Z,2.61
2023-01-09T07:21:56.833Z,2.64
2023-01-09T07:27:00.476Z,2.70
2023-01-09T07:32:04.967Z,2.74
2023-01-09T07:37:11.428Z,2.80
2023-01-09T07:42:18.131Z,2.85
2023-01-09T07:47:21.912Z,2.90
2023-01-09T07:52:26.336Z,2.97
2023-01-09T07:57:33.433Z,3.04
2023-01-09T08:02:37.580Z,3.12
2023-01-09T08:07:45.090Z,3.19
2023-01-09T08:12:49.860Z,3.27
2023-01-09T08:17:53.751Z,3.35
2023-01-09T08:22:57.621Z,3.43
2023-01-09T08:28:01.647Z,3.52
2023-01-09T08:33:05.883Z,3.60
2023-01-09T08:38:10.959Z,3.69
2023-01-09T08:43:33.983Z,3.78
2023-01-09T08:48:37.635Z,3.90
2023-01-09T08:53:41.278Z,4.00
2023-01-09T08:58:45.437Z,4.11
2023-01-09T09:03:49.153Z,4.21
2023-01-09T09:08:52.807Z,4.29
2023-01-09T09:13:58.110Z,4.38
2023-01-09T09:19:01.865Z,4.45
2023-01-09T09:24:05.747Z,4.51
2023-01-09T09:29:09.783Z,4.62
2023-01-09T09:34:13.789Z,4.72
2023-01-09T09:39:17.622Z,4.83
2023-01-09T09:44:58.838Z,4.91
2023-01-09T09:50:48.149Z,4.95
2023-01-09T09:55:52.282Z,5.00
2023-01-09T10:00:56.816Z,5.04
2023-01-09T10:06:01.373Z,5.07
2023-01-09T10:11:05.676Z,5.10
2023-01-09T10:16:26.984Z,5.17
2023-01-09T10:22:19.155Z,5.30
2023-01-09T10:27:45.723Z,5.53
2023-01-09T10:33:10.028Z,5.84
2023-01-09T10:38:19.882Z,6.17
2023-01-09T10:43:57.969Z,6.41
2023-01-09T10:49:06.074Z,6.60
2023-01-09T10:54:22.637Z,6.74
2023-01-09T10:59:42.590Z,6.93
2023-01-09T11:04:45.039Z,7.14
2023-01-09T11:10:12.199Z,7.32
2023-01-09T11:15:27.560Z,7.51
2023-01-09T11:20:31.414Z,7.64
2023-01-09T11:25:40.949Z,7.71
2023-01-09T11:31:00.961Z,7.77
2023-01-09T11:36:25.647Z,7.78
2023-01-09T11:41:34.822Z,7.83
2023-01-09T11:46:42.789Z,7.88
2023-01-09T11:51:46.760Z,7.92
2023-01-09T11:56:51.510Z,7.95
2023-01-09T12:02:22.490Z,7.97
2023-01-09T12:08:07.166Z,7.99
2023-01-09T12:13:26.495Z,8.04
2023-01-09T12:19:01.260Z,8.07
2023-01-09T12:24:39.879Z,8.06
2023-01-09T12:30:01.942Z,8.01
2023-01-09T12:35:42.302Z,7.97
2023-01-09T12:41:15.111Z,7.97
2023-01-09T12:46:20.646Z,7.97
2023-01-09T12:51:50.657Z,7.99
2023-01-09T12:57:39.215Z,8.00
2023-01-09T13:02:47.555Z,8.01
2023-01-09T13:08:16.327Z,8.00
2023-01-09T13:13:35.031Z,7.97
2023-01-09T13:19:07.127Z,7.93
2023-01-09T13:24:34.230Z,7.92
2023-01-09T13:29:47.805Z,7.91
2023-01-09T13:34:54.244Z,7.94
2023-01-09T13:40:04.724Z,7.98
2023-01-09T13:45:28.695Z,8.03
2023-01-09T13:50:32.427Z,8.07
2023-01-09T13:55:36.532Z,8.13
2023-01-09T14:01:19.226Z,8.17
2023-01-09T14:06:27.533Z,8.19
2023-01-09T14:11:31.319Z,8.18
2023-01-09T14:16:36.307Z,8.14
2023-01-09T14:21:45.569Z,8.08
2023-01-09T14:26:56.303Z,8.01
2023-01-09T14:32:43.233Z,7.93
2023-01-09T14:37:56.413Z,7.90
2023-01-09T14:43:12.717Z,7.86
2023-01-09T14:48:17.272Z,7.79
2023-01-09T14:53:30.379Z,7.73
2023-01-09T14:58:37.609Z,7.70
2023-01-09T15:03:44.754Z,7.71
2023-01-09T15:09:02.075Z,7.71
2023-01-09T15:14:06.810Z,7.65
2023-01-09T15:19:13.397Z,7.59
2023-01-09T15:24:30.753Z,7.60
2023-01-09T15:29:34.776Z,7.67
2023-01-09T15:34:39.995Z,7.69
2023-01-09T15:39:43.743Z,7.68
2023-01-09T15:44:50.037Z,7.66
2023-01-09T15:49:55.475Z,7.68
2023-01-09T15:54:59.170Z,7.71
2023-01-09T16:00:42.975Z,7.73
2023-01-09T16:06:06.235Z,7.74
2023-01-09T16:11:19.832Z,7.69
2023-01-09T16:16:29.945Z,7.61
2023-01-09T16:21:37.236Z,7.51
2023-01-09T16:26:40.951Z,7.42
2023-01-09T16:31:44.934Z,7.34
2023-01-09T16:36:49.153Z,7.24
2023-01-09T16:42:11.903Z,7.11
2023-01-09T16:47:15.522Z,6.93
2023-01-09T16:52:19.170Z,6.73
2023-01-09T16:57:22.860Z,6.50
2023-01-09T17:02:27.009Z,6.31
2023-01-09T17:07:31.623Z,6.19
2023-01-09T17:12:35.483Z,6.05
2023-01-09T17:17:39.243Z,5.92
2023-01-09T17:22:43.753Z,5.85
2023-01-09T17:28:06.080Z,5.87
2023-01-09T17:33:20.057Z,5.94
2023-01-09T17:38:23.961Z,6.04
2023-01-09T17:43:27.637Z,6.13
2023-01-09T17:48:32.624Z,6.20
2023-01-09T17:53:36.781Z,6.24
2023-01-09T17:58:40.832Z,6.26
2023-01-09T18:03:47.392Z,6.29
2023-01-09T18:08:51.243Z,6.33
2023-01-09T18:13:55.103Z,6.33
2023-01-09T18:18:59.848Z,6.27
2023-01-09T18:24:04.597Z,6.20
2023-01-09T18:29:09.773Z,6.09
2023-01-09T18:34:14.330Z,6.00
2023-01-09T18:39:19.133Z,5.85
2023-01-09T18:44:25.063Z,5.62
2023-01-09T18:49:30.940Z,5.41
2023-01-09T18:54:35.527Z,5.26
2023-01-09T18:59:40.082Z,5.15
2023-01-09T19:04:45.895Z,5.04
2023-01-09T19:09:50.980Z,4.89
2023-01-09T19:14:56.865Z,4.70
2023-01-09T19:20:00.884Z,4.56
2023-01-09T19:25:06.025Z,4.48
2023-01-09T19:30:11.610Z,4.44
2023-01-09T19:35:20.826Z,4.45
2023-01-09T19:40:28.859Z,4.44
2023-01-09T19:45:53.868Z,4.42
2023-01-09T19:51:07.741Z,4.40
2023-01-09T19:56:19.704Z,4.34
2023-01-09T20:01:35.925Z,4.24
2023-01-09T20:06:48.721Z,4.15
2023-01-09T20:11:55.730Z,4.10
2023-01-09T20:17:07.361Z,4.08
2023-01-09T20:22:12.965Z,4.09
2023-01-09T20:27:34.776Z,4.09
2023-01-09T20:32:51.207Z,4.04
2023-01-09T20:37:55.329Z,3.98
2023-01-09T20:43:00.379Z,3.96
2023-01-09T20:48:05.690Z,4.00
2023-01-09T20:53:10.731Z,4.07
2023-01-09T20:58:15.389Z,4.19
2023-01-09T21:03:20.020Z,4.27
2023-01-09T21:08:24.519Z,4.36
2023-01-09T21:13:28.853Z,4.46
2023-01-09T21:18:33.520Z,4.58
2023-01-09T21:23:39.432Z,4.67
2023-01-09T21:28:50.285Z,4.77
2023-01-09T21:33:54.885Z,4.83
2023-01-09T21:38:59.460Z,4.84
2023-01-09T21:44:42.291Z,4.82
2023-01-09T21:50:13.032Z,4.79
2023-01-09T21:55:17.090Z,4.78
2023-01-09T22:00:22.966Z,4.77
2023-01-09T22:05:27.493Z,4.76
2023-01-09T22:10:31.355Z,4.73
2023-01-09T22:15:35.540Z,4.71
2023-01-09T22:20:39.351Z,4.68
2023-01-09T22:25:43.123Z,4.65
2023-01-09T22:30:47.260Z,4.61
2023-01-09T22:35:51.298Z,4.61
2023-01-09T22:40:54.908Z,4.60
2023-01-09T22:46:09.085Z,4.60
2023-01-09T22:51:17.231Z,4.61
2023-01-09T22:56:22.992Z,4.66
2023-01-09T23:01:28.035Z,4.70
2023-01-09T23:06:34.459Z,4.75
2023-01-09T23:11:57.061Z,4.79
2023-01-09T23:17:00.898Z,4.81
2023-01-09T23:22:05.544Z,4.84
2023-01-09T23:27:09.656Z,4.90
2023-01-09T23:32:14.464Z,4.93
2023-01-09T23:37:18.413Z,4.97
2023-01-09T23:42:41.003Z,5.01
2023-01-09T23:47:44.770Z,5.06
2023-01-09T23:52:48.899Z,5.09
2023-01-09T23:57:56.125Z,5.09
